sensor_id;sensor_type;location;lat;lon;timestamp;P1;durP1;ratioP1;P2;durP2;ratioP2
36355;SDS011;22384;54.302;18.596;2023-03-17T00:01:17;51.33;;;21.95;;
36355;SDS011;22384;54.302;18.596;2023-03-17T00:03:44;47.55;;;19.63;;
36355;SDS011;22384;54.302;18.596;2023-03-17T00:06:15;47.78;;;20.88;;
36355;SDS011;22384;54.302;18.596;2023-03-17T00:08:42;45.15;;;21.50;;
36355;SDS011;22384;54.302;18.596;2023-03-17T00:11:13;45.40;;;21.42;;
36355;SDS011;22384;54.302;18.596;2023-03-17T00:13:40;44.95;;;18.45;;
36355;SDS011;22384;54.302;18.596;2023-03-17T00:16:09;40.35;;;17.13;;
36355;SDS011;22384;54.302;18.596;2023-03-17T00:21:31;36.10;;;16.63;;
36355;SDS011;22384;54.302;18.596;2023-03-17T00:23:58;36.42;;;17.42;;
36355;SDS011;22384;54.302;18.596;2023-03-17T00:26:25;43.13;;;19.45;;
36355;SDS011;22384;54.302;18.596;2023-03-17T00:28:52;41.75;;;19.15;;
36355;SDS011;22384;54.302;18.596;2023-03-17T00:31:23;42.67;;;19.05;;
36355;SDS011;22384;54.302;18.596;2023-03-17T00:33:50;52.22;;;21.27;;
36355;SDS011;22384;54.302;18.596;2023-03-17T00:36:18;51.67;;;22.75;;
36355;SDS011;22384;54.302;18.596;2023-03-17T00:38:47;51.95;;;26.38;;
36355;SDS011;22384;54.302;18.596;2023-03-17T00:41:13;51.15;;;24.65;;
36355;SDS011;22384;54.302;18.596;2023-03-17T00:43:40;50.42;;;22.08;;
36355;SDS011;22384;54.302;18.596;2023-03-17T00:48:35;46.53;;;18.67;;
36355;SDS011;22384;54.302;18.596;2023-03-17T00:51:02;40.17;;;18.80;;
36355;SDS011;22384;54.302;18.596;2023-03-17T00:53:29;44.72;;;18.65;;
36355;SDS011;22384;54.302;18.596;2023-03-17T00:55:55;60.25;;;23.35;;
36355;SDS011;22384;54.302;18.596;2023-03-17T00:58:22;50.15;;;23.00;;
36355;SDS011;22384;54.302;18.596;2023-03-17T01:00:50;43.90;;;18.33;;
36355;SDS011;22384;54.302;18.596;2023-03-17T01:03:16;30.55;;;14.52;;
36355;SDS011;22384;54.302;18.596;2023-03-17T01:05:43;32.45;;;13.65;;
36355;SDS011;22384;54.302;18.596;2023-03-17T01:08:09;31.27;;;14.23;;
36355;SDS011;22384;54.302;18.596;2023-03-17T01:10:37;43.92;;;18.90;;
36355;SDS011;22384;54.302;18.596;2023-03-17T01:13:03;38.25;;;16.42;;
36355;SDS011;22384;54.302;18.596;2023-03-17T01:15:30;35.75;;;17.92;;
36355;SDS011;22384;54.302;18.596;2023-03-17T01:17:57;34.25;;;16.30;;
36355;SDS011;22384;54.302;18.596;2023-03-17T01:20:28;32.20;;;15.95;;
36355;SDS011;22384;54.302;18.596;2023-03-17T01:22:55;37.47;;;17.85;;
36355;SDS011;22384;54.302;18.596;2023-03-17T01:25:21;30.77;;;15.55;;
36355;SDS011;22384;54.302;18.596;2023-03-17T01:27:48;28.33;;;14.95;;
36355;SDS011;22384;54.302;18.596;2023-03-17T01:32:40;29.45;;;13.07;;
36355;SDS011;22384;54.302;18.596;2023-03-17T01:35:07;32.40;;;13.32;;
36355;SDS011;22384;54.302;18.596;2023-03-17T01:37:33;42.42;;;15.63;;
36355;SDS011;22384;54.302;18.596;2023-03-17T01:39:59;30.20;;;15.43;;
36355;SDS011;22384;54.302;18.596;2023-03-17T01:42:27;34.97;;;14.57;;
36355;SDS011;22384;54.302;18.596;2023-03-17T01:45:01;29.95;;;13.38;;
36355;SDS011;22384;54.302;18.596;2023-03-17T01:47:28;27.48;;;12.07;;
36355;SDS011;22384;54.302;18.596;2023-03-17T01:50:02;31.95;;;11.23;;
36355;SDS011;22384;54.302;18.596;2023-03-17T01:52:30;25.63;;;12.00;;
36355;SDS011;22384;54.302;18.596;2023-03-17T01:55:04;28.05;;;12.57;;
36355;SDS011;22384;54.302;18.596;2023-03-17T01:57:35;33.03;;;12.32;;
36355;SDS011;22384;54.302;18.596;2023-03-17T02:02:32;29.02;;;11.77;;
36355;SDS011;22384;54.302;18.596;2023-03-17T02:04:59;32.20;;;12.32;;
36355;SDS011;22384;54.302;18.596;2023-03-17T02:07:26;33.85;;;13.35;;
36355;SDS011;22384;54.302;18.596;2023-03-17T02:10:04;28.23;;;12.50;;
36355;SDS011;22384;54.302;18.596;2023-03-17T02:12:31;30.25;;;11.32;;
36355;SDS011;22384;54.302;18.596;2023-03-17T02:14:59;33.63;;;11.90;;
36355;SDS011;22384;54.302;18.596;2023-03-17T02:17:25;36.95;;;12.43;;
36355;SDS011;22384;54.302;18.596;2023-03-17T02:19:52;32.65;;;13.25;;
36355;SDS011;22384;54.302;18.596;2023-03-17T02:22:18;29.85;;;12.85;;
36355;SDS011;22384;54.302;18.596;2023-03-17T02:27:21;33.75;;;14.13;;
36355;SDS011;22384;54.302;18.596;2023-03-17T02:29:49;35.90;;;13.43;;
36355;SDS011;22384;54.302;18.596;2023-03-17T02:32:17;40.33;;;13.48;;
36355;SDS011;22384;54.302;18.596;2023-03-17T02:34:44;36.05;;;13.95;;
36355;SDS011;22384;54.302;18.596;2023-03-17T02:37:10;34.17;;;14.23;;
36355;SDS011;22384;54.302;18.596;2023-03-17T02:39:37;36.30;;;16.20;;
36355;SDS011;22384;54.302;18.596;2023-03-17T02:42:04;35.85;;;15.27;;
36355;SDS011;22384;54.302;18.596;2023-03-17T02:44:31;39.42;;;14.32;;
36355;SDS011;22384;54.302;18.596;2023-03-17T02:46:57;34.63;;;14.35;;
36355;SDS011;22384;54.302;18.596;2023-03-17T02:49:24;38.10;;;14.07;;
36355;SDS011;22384;54.302;18.596;2023-03-17T02:51:51;30.08;;;14.30;;
36355;SDS011;22384;54.302;18.596;2023-03-17T02:54:18;38.00;;;13.65;;
36355;SDS011;22384;54.302;18.596;2023-03-17T02:56:44;30.35;;;13.38;;
36355;SDS011;22384;54.302;18.596;2023-03-17T02:59:10;37.95;;;14.23;;
36355;SDS011;22384;54.302;18.596;2023-03-17T03:01:36;37.95;;;14.05;;
36355;SDS011;22384;54.302;18.596;2023-03-17T03:04:06;30.50;;;13.05;;
36355;SDS011;22384;54.302;18.596;2023-03-17T03:06:33;27.55;;;11.93;;
36355;SDS011;22384;54.302;18.596;2023-03-17T03:08:59;29.92;;;14.13;;
36355;SDS011;22384;54.302;18.596;2023-03-17T03:11:25;37.42;;;13.07;;
36355;SDS011;22384;54.302;18.596;2023-03-17T03:13:53;29.30;;;12.48;;
36355;SDS011;22384;54.302;18.596;2023-03-17T03:16:20;33.85;;;12.07;;
36355;SDS011;22384;54.302;18.596;2023-03-17T03:18:46;33.40;;;13.20;;
36355;SDS011;22384;54.302;18.596;2023-03-17T03:21:12;25.10;;;12.55;;
36355;SDS011;22384;54.302;18.596;2023-03-17T03:23:39;33.33;;;12.00;;
36355;SDS011;22384;54.302;18.596;2023-03-17T03:26:05;35.22;;;12.80;;
36355;SDS011;22384;54.302;18.596;2023-03-17T03:28:32;29.63;;;11.75;;
36355;SDS011;22384;54.302;18.596;2023-03-17T03:30:58;26.25;;;11.27;;
36355;SDS011;22384;54.302;18.596;2023-03-17T03:33:24;32.63;;;12.93;;
36355;SDS011;22384;54.302;18.596;2023-03-17T03:35:50;29.20;;;11.07;;
36355;SDS011;22384;54.302;18.596;2023-03-17T03:38:17;26.10;;;11.23;;
36355;SDS011;22384;54.302;18.596;2023-03-17T03:40:43;23.40;;;10.20;;
36355;SDS011;22384;54.302;18.596;2023-03-17T03:43:09;25.90;;;10.18;;
36355;SDS011;22384;54.302;18.596;2023-03-17T03:45:36;29.25;;;11.32;;
36355;SDS011;22384;54.302;18.596;2023-03-17T03:48:02;23.80;;;10.00;;
36355;SDS011;22384;54.302;18.596;2023-03-17T03:50:28;23.73;;;10.70;;
36355;SDS011;22384;54.302;18.596;2023-03-17T03:52:55;26.67;;;10.20;;
36355;SDS011;22384;54.302;18.596;2023-03-17T03:55:22;22.65;;;10.50;;
36355;SDS011;22384;54.302;18.596;2023-03-17T03:57:49;27.65;;;9.95;;
36355;SDS011;22384;54.302;18.596;2023-03-17T04:00:15;23.15;;;10.43;;
36355;SDS011;22384;54.302;18.596;2023-03-17T04:02:42;19.00;;;9.60;;
36355;SDS011;22384;54.302;18.596;2023-03-17T04:05:13;16.80;;;6.90;;
36355;SDS011;22384;54.302;18.596;2023-03-17T04:07:39;33.53;;;15.05;;
36355;SDS011;22384;54.302;18.596;2023-03-17T04:10:09;30.90;;;12.98;;
36355;SDS011;22384;54.302;18.596;2023-03-17T04:12:36;23.65;;;10.32;;
36355;SDS011;22384;54.302;18.596;2023-03-17T04:15:02;21.63;;;10.77;;
36355;SDS011;22384;54.302;18.596;2023-03-17T04:17:28;24.73;;;10.15;;
36355;SDS011;22384;54.302;18.596;2023-03-17T04:19:54;25.65;;;11.52;;
36355;SDS011;22384;54.302;18.596;2023-03-17T04:22:21;31.83;;;14.77;;
36355;SDS011;22384;54.302;18.596;2023-03-17T04:24:48;34.67;;;16.10;;
36355;SDS011;22384;54.302;18.596;2023-03-17T04:27:15;30.63;;;15.48;;
36355;SDS011;22384;54.302;18.596;2023-03-17T04:29:42;31.90;;;13.68;;
36355;SDS011;22384;54.302;18.596;2023-03-17T04:32:08;33.53;;;14.90;;
36355;SDS011;22384;54.302;18.596;2023-03-17T04:34:35;33.88;;;15.90;;
36355;SDS011;22384;54.302;18.596;2023-03-17T04:37:02;34.33;;;15.30;;
36355;SDS011;22384;54.302;18.596;2023-03-17T04:39:29;39.50;;;16.60;;
36355;SDS011;22384;54.302;18.596;2023-03-17T04:41:56;31.17;;;14.30;;
36355;SDS011;22384;54.302;18.596;2023-03-17T04:44:23;31.35;;;14.80;;
36355;SDS011;22384;54.302;18.596;2023-03-17T04:46:49;43.28;;;17.77;;
36355;SDS011;22384;54.302;18.596;2023-03-17T04:49:15;29.83;;;14.98;;
36355;SDS011;22384;54.302;18.596;2023-03-17T04:51:41;39.85;;;16.50;;
36355;SDS011;22384;54.302;18.596;2023-03-17T04:54:08;39.97;;;16.73;;
36355;SDS011;22384;54.302;18.596;2023-03-17T04:56:34;41.50;;;17.80;;
36355;SDS011;22384;54.302;18.596;2023-03-17T04:59:01;40.38;;;19.80;;
36355;SDS011;22384;54.302;18.596;2023-03-17T05:01:27;43.92;;;20.48;;
36355;SDS011;22384;54.302;18.596;2023-03-17T05:03:54;44.65;;;20.55;;
36355;SDS011;22384;54.302;18.596;2023-03-17T05:06:21;45.55;;;20.30;;
36355;SDS011;22384;54.302;18.596;2023-03-17T05:08:47;53.15;;;21.05;;
36355;SDS011;22384;54.302;18.596;2023-03-17T05:11:13;49.45;;;21.27;;
36355;SDS011;22384;54.302;18.596;2023-03-17T05:13:40;47.88;;;21.05;;
36355;SDS011;22384;54.302;18.596;2023-03-17T05:16:06;45.65;;;19.85;;
36355;SDS011;22384;54.302;18.596;2023-03-17T05:18:32;46.53;;;22.80;;
36355;SDS011;22384;54.302;18.596;2023-03-17T05:20:58;51.47;;;21.83;;
36355;SDS011;22384;54.302;18.596;2023-03-17T05:23:25;50.45;;;21.05;;
36355;SDS011;22384;54.302;18.596;2023-03-17T05:25:51;48.40;;;21.38;;
36355;SDS011;22384;54.302;18.596;2023-03-17T05:28:18;48.95;;;22.75;;
36355;SDS011;22384;54.302;18.596;2023-03-17T05:30:45;49.95;;;23.52;;
36355;SDS011;22384;54.302;18.596;2023-03-17T05:33:14;55.58;;;23.98;;
36355;SDS011;22384;54.302;18.596;2023-03-17T05:35:40;53.35;;;23.63;;
36355;SDS011;22384;54.302;18.596;2023-03-17T05:38:07;50.70;;;23.92;;
36355;SDS011;22384;54.302;18.596;2023-03-17T05:40:33;57.00;;;21.88;;
36355;SDS011;22384;54.302;18.596;2023-03-17T05:43:00;51.85;;;21.92;;
36355;SDS011;22384;54.302;18.596;2023-03-17T05:45:26;57.80;;;22.08;;
36355;SDS011;22384;54.302;18.596;2023-03-17T05:47:53;53.60;;;22.63;;
36355;SDS011;22384;54.302;18.596;2023-03-17T05:50:21;57.83;;;23.05;;
36355;SDS011;22384;54.302;18.596;2023-03-17T05:52:47;54.15;;;22.45;;
36355;SDS011;22384;54.302;18.596;2023-03-17T05:55:15;48.13;;;22.63;;
36355;SDS011;22384;54.302;18.596;2023-03-17T05:57:41;45.17;;;21.80;;
36355;SDS011;22384;54.302;18.596;2023-03-17T06:00:08;44.55;;;21.73;;
36355;SDS011;22384;54.302;18.596;2023-03-17T06:02:34;57.90;;;23.02;;
36355;SDS011;22384;54.302;18.596;2023-03-17T06:05:00;41.83;;;22.25;;
36355;SDS011;22384;54.302;18.596;2023-03-17T06:07:26;46.83;;;21.58;;
36355;SDS011;22384;54.302;18.596;2023-03-17T06:09:53;43.38;;;21.63;;
36355;SDS011;22384;54.302;18.596;2023-03-17T06:12:19;44.90;;;20.73;;
36355;SDS011;22384;54.302;18.596;2023-03-17T06:14:46;47.78;;;21.85;;
36355;SDS011;22384;54.302;18.596;2023-03-17T06:17:12;48.30;;;20.35;;
36355;SDS011;22384;54.302;18.596;2023-03-17T06:19:38;52.65;;;20.95;;
36355;SDS011;22384;54.302;18.596;2023-03-17T06:22:05;42.42;;;20.80;;
36355;SDS011;22384;54.302;18.596;2023-03-17T06:24:31;47.05;;;21.20;;
36355;SDS011;22384;54.302;18.596;2023-03-17T06:26:57;48.15;;;22.08;;
36355;SDS011;22384;54.302;18.596;2023-03-17T06:29:24;62.15;;;25.23;;
36355;SDS011;22384;54.302;18.596;2023-03-17T06:31:50;42.10;;;20.63;;
36355;SDS011;22384;54.302;18.596;2023-03-17T06:34:17;43.35;;;20.90;;
36355;SDS011;22384;54.302;18.596;2023-03-17T06:36:43;42.42;;;20.23;;
36355;SDS011;22384;54.302;18.596;2023-03-17T06:39:10;42.30;;;19.63;;
36355;SDS011;22384;54.302;18.596;2023-03-17T06:41:36;48.13;;;20.67;;
36355;SDS011;22384;54.302;18.596;2023-03-17T06:44:02;39.67;;;20.05;;
36355;SDS011;22384;54.302;18.596;2023-03-17T06:46:32;28.17;;;15.23;;
36355;SDS011;22384;54.302;18.596;2023-03-17T06:48:58;39.83;;;19.38;;
36355;SDS011;22384;54.302;18.596;2023-03-17T06:51:25;46.17;;;19.80;;
36355;SDS011;22384;54.302;18.596;2023-03-17T06:53:52;42.53;;;19.08;;
36355;SDS011;22384;54.302;18.596;2023-03-17T06:56:18;42.45;;;20.85;;
36355;SDS011;22384;54.302;18.596;2023-03-17T06:58:44;42.97;;;20.33;;
36355;SDS011;22384;54.302;18.596;2023-03-17T07:01:12;36.10;;;18.48;;
36355;SDS011;22384;54.302;18.596;2023-03-17T07:06:07;34.15;;;18.42;;
36355;SDS011;22384;54.302;18.596;2023-03-17T07:08:34;41.17;;;20.20;;
36355;SDS011;22384;54.302;18.596;2023-03-17T07:11:00;36.90;;;18.77;;
36355;SDS011;22384;54.302;18.596;2023-03-17T07:13:28;37.17;;;19.95;;
36355;SDS011;22384;54.302;18.596;2023-03-17T07:15:59;36.00;;;18.95;;
36355;SDS011;22384;54.302;18.596;2023-03-17T07:18:27;42.42;;;19.95;;
36355;SDS011;22384;54.302;18.596;2023-03-17T07:20:56;38.25;;;19.67;;
36355;SDS011;22384;54.302;18.596;2023-03-17T07:23:23;38.83;;;19.67;;
36355;SDS011;22384;54.302;18.596;2023-03-17T07:25:49;48.80;;;21.77;;
36355;SDS011;22384;54.302;18.596;2023-03-17T07:28:16;38.25;;;20.73;;
36355;SDS011;22384;54.302;18.596;2023-03-17T07:30:43;46.05;;;22.23;;
36355;SDS011;22384;54.302;18.596;2023-03-17T07:33:11;38.75;;;20.92;;
36355;SDS011;22384;54.302;18.596;2023-03-17T07:35:37;41.90;;;21.38;;
36355;SDS011;22384;54.302;18.596;2023-03-17T07:38:05;47.40;;;21.55;;
36355;SDS011;22384;54.302;18.596;2023-03-17T07:40:31;45.35;;;22.13;;
36355;SDS011;22384;54.302;18.596;2023-03-17T07:42:58;45.10;;;21.65;;
36355;SDS011;22384;54.302;18.596;2023-03-17T07:45:24;44.95;;;20.27;;
36355;SDS011;22384;54.302;18.596;2023-03-17T07:47:50;34.90;;;19.42;;
36355;SDS011;22384;54.302;18.596;2023-03-17T07:50:17;37.15;;;19.65;;
36355;SDS011;22384;54.302;18.596;2023-03-17T07:52:43;42.78;;;21.27;;
36355;SDS011;22384;54.302;18.596;2023-03-17T07:55:09;37.17;;;20.25;;
36355;SDS011;22384;54.302;18.596;2023-03-17T07:57:38;37.78;;;19.15;;
36355;SDS011;22384;54.302;18.596;2023-03-17T08:00:05;40.38;;;20.90;;
36355;SDS011;22384;54.302;18.596;2023-03-17T08:02:33;36.92;;;20.80;;
36355;SDS011;22384;54.302;18.596;2023-03-17T08:05:00;36.17;;;20.67;;
36355;SDS011;22384;54.302;18.596;2023-03-17T08:07:27;44.58;;;22.33;;
36355;SDS011;22384;54.302;18.596;2023-03-17T08:09:55;39.95;;;20.65;;
36355;SDS011;22384;54.302;18.596;2023-03-17T08:12:22;44.83;;;21.73;;
36355;SDS011;22384;54.302;18.596;2023-03-17T08:14:48;41.38;;;20.55;;
36355;SDS011;22384;54.302;18.596;2023-03-17T08:17:15;37.55;;;21.33;;
36355;SDS011;22384;54.302;18.596;2023-03-17T08:19:41;47.10;;;22.48;;
36355;SDS011;22384;54.302;18.596;2023-03-17T08:22:08;37.05;;;21.30;;
36355;SDS011;22384;54.302;18.596;2023-03-17T08:24:34;40.85;;;21.63;;
36355;SDS011;22384;54.302;18.596;2023-03-17T08:27:06;40.20;;;20.55;;
36355;SDS011;22384;54.302;18.596;2023-03-17T08:29:33;38.17;;;20.05;;
36355;SDS011;22384;54.302;18.596;2023-03-17T08:32:00;38.47;;;18.63;;
36355;SDS011;22384;54.302;18.596;2023-03-17T08:34:26;36.38;;;19.20;;
36355;SDS011;22384;54.302;18.596;2023-03-17T08:36:52;30.65;;;18.23;;
36355;SDS011;22384;54.302;18.596;2023-03-17T08:39:18;41.10;;;20.20;;
36355;SDS011;22384;54.302;18.596;2023-03-17T08:41:45;35.70;;;19.27;;
36355;SDS011;22384;54.302;18.596;2023-03-17T08:44:12;30.42;;;18.83;;
36355;SDS011;22384;54.302;18.596;2023-03-17T08:46:38;39.25;;;19.77;;
36355;SDS011;22384;54.302;18.596;2023-03-17T08:49:05;31.25;;;16.92;;
36355;SDS011;22384;54.302;18.596;2023-03-17T08:51:33;30.33;;;17.65;;
36355;SDS011;22384;54.302;18.596;2023-03-17T08:53:59;32.35;;;17.92;;
36355;SDS011;22384;54.302;18.596;2023-03-17T08:56:26;35.80;;;17.90;;
36355;SDS011;22384;54.302;18.596;2023-03-17T08:58:52;31.10;;;18.08;;
36355;SDS011;22384;54.302;18.596;2023-03-17T09:01:19;30.67;;;16.85;;
36355;SDS011;22384;54.302;18.596;2023-03-17T09:03:47;29.10;;;15.10;;
36355;SDS011;22384;54.302;18.596;2023-03-17T09:06:13;31.25;;;16.55;;
36355;SDS011;22384;54.302;18.596;2023-03-17T09:08:40;30.88;;;15.98;;
36355;SDS011;22384;54.302;18.596;2023-03-17T09:11:16;31.45;;;17.40;;
36355;SDS011;22384;54.302;18.596;2023-03-17T09:13:43;24.90;;;15.85;;
36355;SDS011;22384;54.302;18.596;2023-03-17T09:16:10;25.42;;;14.75;;
36355;SDS011;22384;54.302;18.596;2023-03-17T09:18:37;26.13;;;15.27;;
36355;SDS011;22384;54.302;18.596;2023-03-17T09:21:03;33.70;;;16.92;;
36355;SDS011;22384;54.302;18.596;2023-03-17T09:23:30;30.65;;;15.98;;
36355;SDS011;22384;54.302;18.596;2023-03-17T09:25:57;32.40;;;17.65;;
36355;SDS011;22384;54.302;18.596;2023-03-17T09:28:24;28.40;;;15.20;;
36355;SDS011;22384;54.302;18.596;2023-03-17T09:30:50;33.60;;;15.60;;
36355;SDS011;22384;54.302;18.596;2023-03-17T09:33:16;32.03;;;16.52;;
36355;SDS011;22384;54.302;18.596;2023-03-17T09:35:43;30.38;;;17.13;;
36355;SDS011;22384;54.302;18.596;2023-03-17T09:38:09;28.50;;;16.83;;
36355;SDS011;22384;54.302;18.596;2023-03-17T09:46:06;31.95;;;16.38;;
36355;SDS011;22384;54.302;18.596;2023-03-17T09:48:40;27.98;;;15.40;;
36355;SDS011;22384;54.302;18.596;2023-03-17T09:51:10;32.25;;;16.70;;
36355;SDS011;22384;54.302;18.596;2023-03-17T09:56:07;26.95;;;14.70;;
36355;SDS011;22384;54.302;18.596;2023-03-17T09:58:36;27.25;;;16.00;;
36355;SDS011;22384;54.302;18.596;2023-03-17T10:01:03;27.38;;;15.27;;
36355;SDS011;22384;54.302;18.596;2023-03-17T10:03:30;33.53;;;15.93;;
36355;SDS011;22384;54.302;18.596;2023-03-17T10:11:39;24.73;;;14.40;;
36355;SDS011;22384;54.302;18.596;2023-03-17T10:16:53;24.20;;;12.45;;
36355;SDS011;22384;54.302;18.596;2023-03-17T10:22:03;22.70;;;11.77;;
36355;SDS011;22384;54.302;18.596;2023-03-17T10:24:30;14.57;;;9.60;;
36355;SDS011;22384;54.302;18.596;2023-03-17T10:26:58;19.67;;;11.02;;
36355;SDS011;22384;54.302;18.596;2023-03-17T10:29:27;20.83;;;10.45;;
36355;SDS011;22384;54.302;18.596;2023-03-17T10:31:53;14.52;;;8.82;;
36355;SDS011;22384;54.302;18.596;2023-03-17T10:34:26;15.23;;;9.30;;
36355;SDS011;22384;54.302;18.596;2023-03-17T10:36:54;25.58;;;14.13;;
36355;SDS011;22384;54.302;18.596;2023-03-17T10:39:24;26.55;;;12.57;;
36355;SDS011;22384;54.302;18.596;2023-03-17T10:46:59;20.92;;;10.25;;
36355;SDS011;22384;54.302;18.596;2023-03-17T10:49:25;17.38;;;8.45;;
36355;SDS011;22384;54.302;18.596;2023-03-17T10:51:56;14.07;;;8.40;;
36355;SDS011;22384;54.302;18.596;2023-03-17T10:54:23;20.13;;;9.15;;
36355;SDS011;22384;54.302;18.596;2023-03-17T10:56:54;21.23;;;8.65;;
36355;SDS011;22384;54.302;18.596;2023-03-17T10:59:27;16.92;;;7.78;;
36355;SDS011;22384;54.302;18.596;2023-03-17T11:07:04;20.60;;;8.35;;
36355;SDS011;22384;54.302;18.596;2023-03-17T11:09:34;19.05;;;8.77;;
36355;SDS011;22384;54.302;18.596;2023-03-17T11:12:02;20.25;;;8.45;;
36355;SDS011;22384;54.302;18.596;2023-03-17T11:14:30;21.52;;;8.82;;
36355;SDS011;22384;54.302;18.596;2023-03-17T11:19:42;15.60;;;7.95;;
36355;SDS011;22384;54.302;18.596;2023-03-17T11:27:28;13.40;;;6.53;;
36355;SDS011;22384;54.302;18.596;2023-03-17T11:40:18;17.05;;;7.70;;
36355;SDS011;22384;54.302;18.596;2023-03-17T11:48:05;18.15;;;8.20;;
36355;SDS011;22384;54.302;18.596;2023-03-17T11:50:40;15.95;;;9.68;;
36355;SDS011;22384;54.302;18.596;2023-03-17T11:53:19;16.00;;;8.10;;
36355;SDS011;22384;54.302;18.596;2023-03-17T11:55:47;19.55;;;8.63;;
36355;SDS011;22384;54.302;18.596;2023-03-17T11:58:31;21.35;;;8.27;;
36355;SDS011;22384;54.302;18.596;2023-03-17T12:00:59;17.63;;;8.90;;
36355;SDS011;22384;54.302;18.596;2023-03-17T12:03:41;21.10;;;9.02;;
36355;SDS011;22384;54.302;18.596;2023-03-17T12:06:25;16.42;;;7.88;;
36355;SDS011;22384;54.302;18.596;2023-03-17T12:09:05;13.98;;;7.82;;
36355;SDS011;22384;54.302;18.596;2023-03-17T12:11:34;10.65;;;5.97;;
36355;SDS011;22384;54.302;18.596;2023-03-17T12:14:03;12.20;;;7.47;;
36355;SDS011;22384;54.302;18.596;2023-03-17T12:16:40;19.73;;;8.95;;
36355;SDS011;22384;54.302;18.596;2023-03-17T12:19:11;20.77;;;9.07;;
36355;SDS011;22384;54.302;18.596;2023-03-17T12:21:45;22.33;;;8.52;;
36355;SDS011;22384;54.302;18.596;2023-03-17T12:24:21;22.02;;;8.73;;
36355;SDS011;22384;54.302;18.596;2023-03-17T12:26:53;15.63;;;9.20;;
36355;SDS011;22384;54.302;18.596;2023-03-17T12:29:38;19.30;;;9.77;;
36355;SDS011;22384;54.302;18.596;2023-03-17T12:32:11;19.38;;;9.00;;
36355;SDS011;22384;54.302;18.596;2023-03-17T12:37:06;16.27;;;8.98;;
36355;SDS011;22384;54.302;18.596;2023-03-17T12:39:34;22.15;;;9.00;;
36355;SDS011;22384;54.302;18.596;2023-03-17T12:54:36;22.00;;;9.48;;
36355;SDS011;22384;54.302;18.596;2023-03-17T12:57:05;18.27;;;9.20;;
36355;SDS011;22384;54.302;18.596;2023-03-17T12:59:35;16.90;;;9.30;;
36355;SDS011;22384;54.302;18.596;2023-03-17T13:04:31;24.42;;;10.30;;
36355;SDS011;22384;54.302;18.596;2023-03-17T13:07:10;39.78;;;14.95;;
36355;SDS011;22384;54.302;18.596;2023-03-17T13:09:43;53.40;;;17.15;;
36355;SDS011;22384;54.302;18.596;2023-03-17T13:14:56;44.80;;;15.45;;
36355;SDS011;22384;54.302;18.596;2023-03-17T13:20:02;28.38;;;10.65;;
36355;SDS011;22384;54.302;18.596;2023-03-17T13:22:36;38.08;;;12.88;;
36355;SDS011;22384;54.302;18.596;2023-03-17T13:35:40;21.50;;;9.10;;
36355;SDS011;22384;54.302;18.596;2023-03-17T13:45:41;40.03;;;15.60;;
36355;SDS011;22384;54.302;18.596;2023-03-17T13:50:58;88.05;;;26.90;;
36355;SDS011;22384;54.302;18.596;2023-03-17T13:53:26;79.20;;;25.48;;
36355;SDS011;22384;54.302;18.596;2023-03-17T13:56:03;76.40;;;21.00;;
36355;SDS011;22384;54.302;18.596;2023-03-17T13:58:33;48.30;;;19.10;;
36355;SDS011;22384;54.302;18.596;2023-03-17T14:01:01;39.35;;;20.55;;
36355;SDS011;22384;54.302;18.596;2023-03-17T14:03:38;26.02;;;11.23;;
36355;SDS011;22384;54.302;18.596;2023-03-17T14:06:06;30.35;;;14.05;;
36355;SDS011;22384;54.302;18.596;2023-03-17T14:11:02;38.20;;;15.93;;
36355;SDS011;22384;54.302;18.596;2023-03-17T14:13:47;25.35;;;12.40;;
36355;SDS011;22384;54.302;18.596;2023-03-17T14:19:24;49.63;;;18.65;;
36355;SDS011;22384;54.302;18.596;2023-03-17T14:21:52;38.67;;;16.27;;
36355;SDS011;22384;54.302;18.596;2023-03-17T14:24:22;24.92;;;11.30;;
36355;SDS011;22384;54.302;18.596;2023-03-17T14:29:16;117.93;;;36.42;;
36355;SDS011;22384;54.302;18.596;2023-03-17T14:31:47;69.07;;;23.17;;
36355;SDS011;22384;54.302;18.596;2023-03-17T14:34:14;80.50;;;27.30;;
36355;SDS011;22384;54.302;18.596;2023-03-17T14:36:40;38.58;;;16.52;;
36355;SDS011;22384;54.302;18.596;2023-03-17T14:39:07;25.55;;;12.25;;
36355;SDS011;22384;54.302;18.596;2023-03-17T14:41:45;19.52;;;7.90;;
36355;SDS011;22384;54.302;18.596;2023-03-17T14:44:21;14.45;;;7.35;;
36355;SDS011;22384;54.302;18.596;2023-03-17T14:46:47;25.52;;;7.32;;
36355;SDS011;22384;54.302;18.596;2023-03-17T14:49:14;16.10;;;7.05;;
36355;SDS011;22384;54.302;18.596;2023-03-17T14:51:41;21.88;;;7.57;;
36355;SDS011;22384;54.302;18.596;2023-03-17T14:54:18;17.08;;;7.38;;
36355;SDS011;22384;54.302;18.596;2023-03-17T14:56:46;16.25;;;6.68;;
36355;SDS011;22384;54.302;18.596;2023-03-17T15:01:59;16.15;;;7.07;;
36355;SDS011;22384;54.302;18.596;2023-03-17T15:04:30;15.48;;;7.35;;
36355;SDS011;22384;54.302;18.596;2023-03-17T15:07:00;14.65;;;6.40;;
36355;SDS011;22384;54.302;18.596;2023-03-17T15:14:43;15.38;;;6.65;;
36355;SDS011;22384;54.302;18.596;2023-03-17T15:17:15;12.85;;;6.60;;
36355;SDS011;22384;54.302;18.596;2023-03-17T15:19:45;14.57;;;7.43;;
36355;SDS011;22384;54.302;18.596;2023-03-17T15:27:24;14.68;;;7.47;;
36355;SDS011;22384;54.302;18.596;2023-03-17T15:29:51;15.23;;;6.80;;
36355;SDS011;22384;54.302;18.596;2023-03-17T15:32:18;16.27;;;6.95;;
36355;SDS011;22384;54.302;18.596;2023-03-17T15:34:45;15.88;;;6.82;;
36355;SDS011;22384;54.302;18.596;2023-03-17T15:37:16;14.93;;;6.30;;
36355;SDS011;22384;54.302;18.596;2023-03-17T15:39:42;15.75;;;6.82;;
36355;SDS011;22384;54.302;18.596;2023-03-17T15:42:08;18.42;;;6.95;;
36355;SDS011;22384;54.302;18.596;2023-03-17T15:44:35;13.27;;;6.97;;
36355;SDS011;22384;54.302;18.596;2023-03-17T15:47:01;14.18;;;6.68;;
36355;SDS011;22384;54.302;18.596;2023-03-17T15:49:27;15.57;;;7.03;;
36355;SDS011;22384;54.302;18.596;2023-03-17T15:51:54;24.15;;;7.43;;
36355;SDS011;22384;54.302;18.596;2023-03-17T15:54:20;14.52;;;6.82;;
36355;SDS011;22384;54.302;18.596;2023-03-17T15:56:46;22.77;;;7.13;;
36355;SDS011;22384;54.302;18.596;2023-03-17T15:59:13;19.60;;;7.60;;
36355;SDS011;22384;54.302;18.596;2023-03-17T16:01:39;13.10;;;6.53;;
36355;SDS011;22384;54.302;18.596;2023-03-17T16:04:07;21.58;;;8.95;;
36355;SDS011;22384;54.302;18.596;2023-03-17T16:06:33;29.80;;;14.50;;
36355;SDS011;22384;54.302;18.596;2023-03-17T16:09:00;16.55;;;9.73;;
36355;SDS011;22384;54.302;18.596;2023-03-17T16:11:27;17.20;;;8.90;;
36355;SDS011;22384;54.302;18.596;2023-03-17T16:13:55;20.98;;;7.45;;
36355;SDS011;22384;54.302;18.596;2023-03-17T16:16:35;19.48;;;6.80;;
36355;SDS011;22384;54.302;18.596;2023-03-17T16:19:03;15.53;;;6.57;;
36355;SDS011;22384;54.302;18.596;2023-03-17T16:21:30;15.80;;;7.88;;
36355;SDS011;22384;54.302;18.596;2023-03-17T16:23:56;17.75;;;7.88;;
36355;SDS011;22384;54.302;18.596;2023-03-17T16:26:23;14.38;;;6.95;;
36355;SDS011;22384;54.302;18.596;2023-03-17T16:28:49;24.58;;;8.52;;